Main page
METAR-TAF:

METAR-TAF

Airports :

Ivano-Frankivsk International Airport

Ivano-Frankivsk, Ukraine

latitude: 48-53-03N, longitude: 024-41-10E, elevation: 280 m

Current weather observation

The report was made 37 minutes ago, at 07:30 UTC
Calm wind
Temperature 24°C
Humidity 74%
Pressure 1013 hPa
Visibility 10 km or more
no clouds below 1500 m and no cumulonimbus

METAR: UKLI 300730Z 00000MPS CAVOK 24/19 Q1013 R28/090070 NOSIG

Time: 11:07 (08:07 UTC)

Forecast

The report was made 3 hours and 5 minutes ago, at 05:02 UTC
Forecast valid from 30 at 06 UTC to 30 at 15 UTC
Wind 2 kt from variable directions
Visibility 10 km or more
Broken clouds at a height of 3000 ft

TAF: UKLI 300502Z 3006/3015 VRB01MPS 9999 BKN030 TX28/3013Z TN20/3006Z

Weather observations and forecasts of more than 4000 airports (METAR and TAF reports).

The available stations are represented by yellow and red dots on the map.

Hover mouse over dot to see the name of the station.

Then click to see weather observations and forecasts.

To change the map : click on the green buttons with a black cross to zoom in, on the green button with a dash to zoom out, or on the green arrows for adjacent maps.


METAR-TAF: